Time;durP1;ratioP1;P1;durP2;ratioP2;P2;SDS_P1;SDS_P2;PMS_P1;PMS_P2;Temp;Humidity;BMP_temperature;BMP_pressure;BME280_temperature;BME280_humidity;BME280_pressure;Samples;Min_cycle;Max_cycle;Signal;HPM_P1;HPM_P2
2022/11/21 00:02:01;;;;;;;28.20;14.65;;;;;;;4.60;53.71;100199.19;4967064;28;98853;-69
2022/11/21 00:04:28;;;;;;;33.35;15.13;;;;;;;4.60;53.93;100200.06;4966323;28;97206;-71
2022/11/21 00:06:54;;;;;;;27.63;14.27;;;;;;;4.64;53.42;100196.50;4968746;28;97673;-70
2022/11/21 00:09:20;;;;;;;27.25;14.07;;;;;;;4.64;53.40;100196.50;4962130;28;99180;-70
2022/11/21 00:11:47;;;;;;;31.38;15.23;;;;;;;4.58;53.27;100191.41;4966465;28;99029;-69
2022/11/21 00:14:13;;;;;;;27.20;14.65;;;;;;;4.55;53.53;100185.34;4960874;28;97600;-70
2022/11/21 00:16:41;;;;;;;25.30;13.25;;;;;;;4.67;53.58;100177.25;4969647;28;98412;-71
2022/11/21 00:19:08;;;;;;;26.70;14.18;;;;;;;4.66;53.01;100167.69;4971485;28;99023;-71
2022/11/21 00:21:34;;;;;;;29.15;14.68;;;;;;;4.86;53.27;100175.97;4964838;28;99506;-70
2022/11/21 00:24:01;;;;;;;28.13;14.32;;;;;;;4.82;52.75;100169.06;4969143;28;97204;-70
2022/11/21 00:26:27;;;;;;;30.45;15.27;;;;;;;4.62;53.42;100159.03;4967324;28;98002;-70
2022/11/21 00:28:54;;;;;;;29.33;15.18;;;;;;;4.47;53.61;100161.06;4966694;28;98938;-70
2022/11/21 00:31:24;;;;;;;27.15;14.48;;;;;;;4.81;53.21;100152.50;4961411;28;98063;-70
2022/11/21 00:33:51;;;;;;;27.70;14.20;;;;;;;4.77;53.10;100158.72;4967080;28;97111;-72
2022/11/21 00:36:18;;;;;;;29.73;15.40;;;;;;;4.67;53.10;100151.94;4967814;28;97735;-70
2022/11/21 00:38:44;;;;;;;31.38;14.70;;;;;;;4.79;53.01;100148.22;4965223;28;98974;-70
2022/11/21 00:41:11;;;;;;;25.58;13.88;;;;;;;4.63;54.13;100139.81;4969367;28;99267;-71
2022/11/21 00:43:38;;;;;;;24.88;13.25;;;;;;;4.85;53.70;100140.22;4966553;28;98775;-71
2022/11/21 00:46:04;;;;;;;30.10;15.05;;;;;;;4.85;52.80;100142.84;4969084;28;96807;-72
2022/11/21 00:48:32;;;;;;;28.60;13.98;;;;;;;4.71;53.57;100144.91;4967683;28;99021;-71
2022/11/21 00:51:00;;;;;;;25.95;14.45;;;;;;;4.96;53.25;100146.09;4970182;28;99246;-70
2022/11/21 00:53:27;;;;;;;29.50;14.57;;;;;;;4.96;52.93;100142.59;4972118;28;98039;-70
2022/11/21 00:55:53;;;;;;;26.75;14.15;;;;;;;5.01;52.34;100146.84;4972984;28;96881;-72
2022/11/21 00:58:20;;;;;;;28.45;13.95;;;;;;;4.80;53.61;100136.84;4973872;28;98977;-70
2022/11/21 01:00:46;;;;;;;28.48;13.52;;;;;;;4.75;53.52;100130.84;4974323;28;98893;-73
2022/11/21 01:03:13;;;;;;;25.98;14.20;;;;;;;4.70;54.14;100127.47;4970532;28;96684;-69
2022/11/21 01:05:39;;;;;;;34.70;15.98;;;;;;;4.92;53.31;100123.50;4968192;28;96898;-69
2022/11/21 01:08:07;;;;;;;28.85;15.43;;;;;;;4.92;53.25;100126.13;4965329;28;99197;-70
2022/11/21 01:10:34;;;;;;;30.10;14.43;;;;;;;5.08;53.03;100121.38;4964932;28;98898;-73
2022/11/21 01:13:01;;;;;;;26.90;14.80;;;;;;;4.89;54.01;100118.31;4972554;28;96754;-70
2022/11/21 01:15:27;;;;;;;29.33;13.85;;;;;;;4.77;53.86;100121.22;4968726;28;97209;-70
2022/11/21 01:17:54;;;;;;;26.95;14.48;;;;;;;4.70;54.95;100117.00;4967480;28;98921;-70
2022/11/21 01:20:20;;;;;;;28.50;14.23;;;;;;;5.07;53.45;100114.41;4971846;28;99352;-71
2022/11/21 01:22:47;;;;;;;30.60;15.15;;;;;;;4.80;54.93;100115.88;4973530;28;96909;-70
2022/11/21 01:25:15;;;;;;;32.28;15.75;;;;;;;5.18;54.26;100115.03;4968145;28;96866;-69
2022/11/21 01:27:41;;;;;;;27.17;13.80;;;;;;;5.34;53.18;100120.75;4972268;28;99258;-70
2022/11/21 01:30:09;;;;;;;31.63;15.60;;;;;;;5.14;53.83;100113.38;4972494;28;98938;-70
2022/11/21 01:32:35;;;;;;;26.48;14.18;;;;;;;5.24;53.69;100116.66;4970084;28;97096;-70
2022/11/21 01:35:01;;;;;;;31.80;16.55;;;;;;;5.13;53.91;100111.66;4970607;28;96979;-71
2022/11/21 01:37:28;;;;;;;28.23;14.77;;;;;;;5.44;53.38;100102.19;4970369;28;99329;-69
2022/11/21 01:39:55;;;;;;;28.88;14.32;;;;;;;5.32;53.52;100106.81;4972884;28;98863;-70
2022/11/21 01:42:22;;;;;;;27.80;15.20;;;;;;;5.44;52.79;100111.78;4970687;28;96960;-70
2022/11/21 01:44:50;;;;;;;29.42;15.30;;;;;;;5.17;53.88;100105.47;4967152;28;96804;-70
2022/11/21 01:47:17;;;;;;;32.70;16.58;;;;;;;5.06;54.25;100108.31;4966965;28;99084;-69
2022/11/21 01:49:45;;;;;;;29.33;14.68;;;;;;;5.13;54.11;100095.94;4971450;28;99084;-70
2022/11/21 01:52:17;;;;;;;28.55;14.80;;;;;;;5.36;53.75;100098.00;4970111;28;96976;-71
2022/11/21 01:54:48;;;;;;;28.15;14.70;;;;;;;5.34;53.63;100102.41;4969568;28;96818;-72
2022/11/21 01:57:19;;;;;;;31.35;15.90;;;;;;;4.87;54.32;100099.16;4965812;28;100324;-70
2022/11/21 01:59:51;;;;;;;31.42;15.55;;;;;;;4.96;54.84;100101.56;4968699;28;99327;-70
2022/11/21 02:02:23;;;;;;;30.05;15.45;;;;;;;4.98;54.98;100099.78;4969436;28;96955;-70
2022/11/21 02:04:52;;;;;;;29.65;15.73;;;;;;;4.97;54.74;100090.22;4970958;28;98009;-69
2022/11/21 02:07:20;;;;;;;28.80;14.73;;;;;;;4.70;55.75;100090.81;4971605;28;98992;-69
2022/11/21 02:09:53;;;;;;;32.65;15.55;;;;;;;4.95;55.09;100097.22;4965196;28;99089;-69
2022/11/21 02:12:24;;;;;;;31.80;15.80;;;;;;;4.88;55.71;100098.25;4966125;28;97023;-69
2022/11/21 02:14:54;;;;;;;30.83;15.80;;;;;;;4.72;55.28;100107.38;4969439;28;96787;-70
2022/11/21 02:17:21;;;;;;;31.05;16.30;;;;;;;5.10;55.27;100102.13;4968094;28;99296;-70
2022/11/21 02:19:52;;;;;;;27.58;15.15;;;;;;;4.92;55.55;100099.06;4972376;28;99444;-71
2022/11/21 02:22:29;;;;;;;29.98;16.17;;;;;;;4.99;54.75;100093.63;4968357;28;97277;-68
2022/11/21 02:25:01;;;;;;;29.17;15.32;;;;;;;4.94;55.19;100095.50;4970837;28;97622;-69
2022/11/21 02:27:28;;;;;;;31.60;15.88;;;;;;;5.01;54.52;100093.59;4971655;28;99060;-70
2022/11/21 02:29:54;;;;;;;28.30;14.95;;;;;;;4.91;54.97;100089.50;4970499;28;100721;-69
2022/11/21 02:32:22;;;;;;;31.58;15.32;;;;;;;4.90;54.62;100085.16;4965058;28;101463;-70
2022/11/21 02:34:48;;;;;;;29.80;14.60;;;;;;;4.91;54.71;100085.13;4971020;28;97928;-69
2022/11/21 02:37:15;;;;;;;30.98;15.57;;;;;;;4.98;54.53;100080.59;4970273;28;100682;-69
2022/11/21 02:39:42;;;;;;;32.17;15.25;;;;;;;4.82;54.90;100075.72;4969900;28;96785;-70
2022/11/21 02:42:14;;;;;;;36.28;16.27;;;;;;;5.08;53.93;100072.47;4966529;28;97486;-70
2022/11/21 02:44:51;;;;;;;31.00;15.52;;;;;;;5.15;54.27;100066.19;4971313;28;97863;-69
2022/11/21 02:47:17;;;;;;;35.72;15.60;;;;;;;4.90;54.63;100062.44;4969356;28;101204;-69
2022/11/21 02:49:50;;;;;;;31.30;16.02;;;;;;;4.89;54.68;100062.47;4965821;28;99378;-70
2022/11/21 02:52:17;;;;;;;35.67;17.25;;;;;;;4.85;54.84;100052.97;4968810;28;99431;-69
2022/11/21 02:54:43;;;;;;;30.92;15.65;;;;;;;5.03;54.49;100056.03;4971626;28;96792;-70
2022/11/21 02:57:11;;;;;;;35.10;16.00;;;;;;;4.79;55.06;100048.75;4971494;28;99210;-71
2022/11/21 02:59:37;;;;;;;32.03;17.40;;;;;;;5.03;54.22;100058.66;4971430;28;98937;-71
2022/11/21 03:02:04;;;;;;;29.50;14.88;;;;;;;5.05;54.20;100051.63;4967122;28;96831;-69
2022/11/21 03:04:30;;;;;;;32.55;16.60;;;;;;;4.72;55.71;100052.41;4967226;28;96925;-69
2022/11/21 03:06:56;;;;;;;34.97;16.55;;;;;;;4.87;55.32;100052.03;4967217;28;97732;-69
2022/11/21 03:09:23;;;;;;;32.05;16.67;;;;;;;4.76;55.32;100048.81;4968899;28;99415;-69
2022/11/21 03:11:49;;;;;;;31.80;15.75;;;;;;;4.84;55.51;100046.88;4970784;28;96934;-69
2022/11/21 03:14:17;;;;;;;32.40;16.75;;;;;;;4.83;55.58;100042.53;4964969;28;98838;-70
2022/11/21 03:16:44;;;;;;;32.72;16.25;;;;;;;4.69;55.87;100047.22;4969770;28;99189;-69
2022/11/21 03:19:10;;;;;;;33.55;16.92;;;;;;;4.99;55.28;100033.41;4970145;28;99224;-70
2022/11/21 03:21:36;;;;;;;32.03;16.20;;;;;;;5.12;55.56;100041.84;4970787;28;97673;-69
2022/11/21 03:24:03;;;;;;;36.78;15.93;;;;;;;5.09;55.21;100032.31;4966088;28;97151;-69
2022/11/21 03:26:30;;;;;;;32.30;16.70;;;;;;;5.17;55.49;100038.22;4970785;28;101152;-71
2022/11/21 03:28:56;;;;;;;36.83;17.60;;;;;;;4.69;56.02;100042.00;4965327;28;99432;-69
2022/11/21 03:31:24;;;;;;;30.25;16.80;;;;;;;4.73;56.65;100046.25;4970479;28;96951;-70
2022/11/21 03:33:50;;;;;;;32.90;16.77;;;;;;;4.76;56.71;100041.81;4962549;28;97870;-69
2022/11/21 03:36:16;;;;;;;31.25;16.40;;;;;;;4.96;56.25;100041.34;4966910;28;99452;-71
2022/11/21 03:38:43;;;;;;;31.92;16.95;;;;;;;5.08;55.41;100046.28;4971118;28;98921;-69
2022/11/21 03:41:28;;;;;;;30.73;15.98;;;;;;;5.10;56.03;100046.25;4972517;28;96946;-70
2022/11/21 03:43:54;;;;;;;31.70;15.25;;;;;;;4.87;56.07;100044.19;4965762;28;97634;-70
2022/11/21 03:46:21;;;;;;;31.27;15.77;;;;;;;4.95;56.47;100055.34;4968594;28;99059;-69
2022/11/21 03:48:48;;;;;;;35.83;17.23;;;;;;;4.98;56.46;100055.28;4971614;28;99246;-70
2022/11/21 03:51:15;;;;;;;33.67;17.13;;;;;;;4.84;56.74;100056.50;4966711;28;99280;-69
2022/11/21 03:53:41;;;;;;;34.28;15.57;;;;;;;5.08;55.65;100048.91;4967230;28;96916;-70
2022/11/21 03:56:08;;;;;;;31.48;15.50;;;;;;;5.08;56.47;100051.53;4969276;28;98906;-69
2022/11/21 03:58:35;;;;;;;32.08;15.73;;;;;;;5.10;55.93;100060.22;4970635;28;99340;-69
2022/11/21 04:01:01;;;;;;;37.17;16.73;;;;;;;4.80;56.58;100053.94;4965897;28;100993;-70
2022/11/21 04:03:28;;;;;;;31.25;16.27;;;;;;;5.05;56.46;100058.63;4967795;28;96947;-70
2022/11/21 04:05:55;;;;;;;31.58;15.93;;;;;;;5.11;55.72;100061.09;4966951;28;99070;-70
2022/11/21 04:08:22;;;;;;;30.88;16.30;;;;;;;5.08;56.22;100071.63;4970880;28;99315;-70
2022/11/21 04:10:49;;;;;;;30.17;15.25;;;;;;;5.10;56.31;100059.34;4964934;28;96859;-69
2022/11/21 04:13:16;;;;;;;36.58;16.98;;;;;;;5.05;56.37;100061.22;4966306;28;96785;-71
2022/11/21 04:15:42;;;;;;;29.13;15.45;;;;;;;4.89;56.62;100062.47;4969487;28;99933;-70
2022/11/21 04:18:09;;;;;;;31.40;15.07;;;;;;;5.07;56.56;100060.28;4963613;28;98764;-69
2022/11/21 04:20:36;;;;;;;30.00;16.25;;;;;;;5.06;56.39;100063.78;4966599;28;99111;-68
2022/11/21 04:23:04;;;;;;;30.05;15.50;;;;;;;4.98;56.85;100073.63;4967256;28;96976;-68
2022/11/21 04:25:31;;;;;;;34.17;16.52;;;;;;;5.08;55.92;100064.63;4964756;28;98865;-68
2022/11/21 04:27:57;;;;;;;32.22;16.20;;;;;;;5.00;56.31;100068.31;4967141;28;98835;-69
2022/11/21 04:30:24;;;;;;;39.33;17.77;;;;;;;4.74;56.52;100061.06;4961430;28;96792;-69
2022/11/21 04:32:51;;;;;;;30.25;15.80;;;;;;;4.97;55.79;100071.88;4967925;28;97509;-68
2022/11/21 04:35:17;;;;;;;31.05;15.73;;;;;;;5.17;55.69;100060.94;4968017;28;101202;-69
2022/11/21 04:37:45;;;;;;;34.60;17.33;;;;;;;5.01;55.92;100068.28;4969217;28;98978;-69
2022/11/21 04:40:14;;;;;;;32.95;16.20;;;;;;;5.11;55.72;100072.41;4962985;28;96905;-71
2022/11/21 04:42:41;;;;;;;31.30;16.90;;;;;;;5.01;55.18;100068.28;4969146;28;97027;-68
2022/11/21 04:45:10;;;;;;;36.38;18.30;;;;;;;4.93;55.67;100071.97;4967662;28;99237;-70
2022/11/21 04:47:38;;;;;;;34.85;17.02;;;;;;;5.14;55.64;100066.22;4967948;28;99179;-69
2022/11/21 04:50:05;;;;;;;31.42;16.25;;;;;;;4.89;55.94;100071.19;4962332;28;96957;-68
2022/11/21 04:52:32;;;;;;;28.95;15.65;;;;;;;4.89;56.34;100072.94;4966930;28;97967;-68
2022/11/21 04:54:58;;;;;;;33.08;16.15;;;;;;;4.85;56.12;100069.56;4969757;28;99016;-68
2022/11/21 04:57:27;;;;;;;33.50;16.92;;;;;;;4.98;55.60;100068.38;4971365;28;98882;-69
2022/11/21 04:59:53;;;;;;;35.17;16.42;;;;;;;4.97;55.84;100071.88;4970194;28;96776;-69
2022/11/21 05:02:20;;;;;;;32.85;17.30;;;;;;;5.04;55.30;100069.97;4970541;28;96797;-70
2022/11/21 05:04:46;;;;;;;33.03;17.02;;;;;;;4.88;55.62;100069.47;4971023;28;99132;-70
2022/11/21 05:07:13;;;;;;;33.10;17.05;;;;;;;5.01;55.62;100070.03;4966035;28;99466;-70
2022/11/21 05:09:39;;;;;;;34.42;17.02;;;;;;;5.17;55.22;100063.56;4970376;28;96729;-69
2022/11/21 05:14:52;;;;;;;33.28;16.67;;;;;;;5.24;54.63;100077.34;4966278;28;98263;-70
2022/11/21 05:17:18;;;;;;;34.88;17.52;;;;;;;4.97;55.25;100073.63;4966022;28;98817;-69
2022/11/21 05:19:45;;;;;;;31.60;16.77;;;;;;;5.24;55.27;100066.88;4966596;28;96829;-69
2022/11/21 05:22:11;;;;;;;38.75;18.08;;;;;;;5.21;54.50;100071.28;4967501;28;96872;-69
2022/11/21 05:24:38;;;;;;;34.60;17.15;;;;;;;5.24;55.45;100078.22;4967553;28;99332;-69
2022/11/21 05:27:05;;;;;;;33.17;17.65;;;;;;;5.24;55.14;100082.59;4968262;28;99293;-69
2022/11/21 05:29:31;;;;;;;31.70;16.48;;;;;;;5.27;55.51;100075.50;4970045;28;96754;-69
2022/11/21 05:32:00;;;;;;;30.90;15.95;;;;;;;5.21;54.81;100071.28;4969220;28;96889;-70
2022/11/21 05:34:26;;;;;;;34.85;16.50;;;;;;;5.07;55.49;100081.22;4969343;28;97905;-69
2022/11/21 05:36:55;;;;;;;34.08;17.27;;;;;;;5.02;55.57;100082.25;4963736;28;101426;-70
2022/11/21 05:39:22;;;;;;;33.10;16.40;;;;;;;5.08;56.30;100088.19;4971593;28;97703;-69
2022/11/21 05:41:49;;;;;;;36.40;18.30;;;;;;;5.34;55.38;100084.09;4971952;28;99086;-69
2022/11/21 05:44:14;;;;;;;35.10;17.25;;;;;;;5.19;55.60;100086.16;4967715;28;98942;-69
2022/11/21 05:46:41;;;;;;;;;;;;;;;5.28;54.62;100079.84;4971847;28;97857;-69
2022/11/21 05:49:09;;;;;;;32.03;15.35;;;;;;;5.25;55.80;100072.06;4971959;28;97866;-68
2022/11/21 05:51:36;;;;;;;32.70;16.65;;;;;;;5.10;55.22;100072.44;4972458;28;96845;-69
2022/11/21 05:54:03;;;;;;;31.25;16.73;;;;;;;5.45;54.86;100061.94;4970374;28;99570;-69
2022/11/21 05:56:29;;;;;;;35.08;17.23;;;;;;;5.32;55.20;100062.28;4970142;28;98887;-68
2022/11/21 05:58:56;;;;;;;34.85;18.25;;;;;;;5.64;54.40;100061.50;4972663;28;96722;-69
2022/11/21 06:04:06;;;;;;;39.35;18.42;;;;;;;5.71;54.70;100068.31;4966736;28;98911;-70
2022/11/21 06:06:34;;;;;;;31.50;16.90;;;;;;;5.93;54.04;100072.94;4967329;28;98852;-70
2022/11/21 06:09:01;;;;;;;39.03;19.75;;;;;;;6.02;53.94;100073.59;4967260;28;98476;-71
2022/11/21 06:11:27;;;;;;;35.78;18.65;;;;;;;6.05;53.53;100078.75;4964739;28;96854;-70
2022/11/21 06:13:54;;;;;;;36.25;19.00;;;;;;;6.09;53.20;100075.16;4964315;28;98899;-70
2022/11/21 06:16:21;;;;;;;40.05;18.75;;;;;;;5.98;53.48;100070.19;4965227;28;98851;-70
2022/11/21 06:18:51;;;;;;;32.40;17.05;;;;;;;6.13;52.93;100071.53;4970205;28;97604;-71
2022/11/21 06:21:19;;;;;;;34.58;17.33;;;;;;;5.75;54.06;100076.03;4967089;28;97306;-69
2022/11/21 06:23:51;;;;;;;37.85;18.38;;;;;;;6.06;53.32;100077.84;4969961;28;98954;-73
2022/11/21 06:26:20;;;;;;;34.95;17.13;;;;;;;5.82;53.70;100076.72;4965431;28;99432;-70
2022/11/21 06:28:50;;;;;;;31.88;16.90;;;;;;;5.90;53.58;100070.44;4964631;28;97510;-69
2022/11/21 06:31:18;;;;;;;36.22;17.42;;;;;;;6.04;53.13;100077.06;4967745;28;96927;-70
2022/11/21 06:33:45;;;;;;;37.15;18.00;;;;;;;6.03;53.20;100078.81;4959459;28;99883;-69
2022/11/21 06:36:14;;;;;;;39.00;19.38;;;;;;;5.78;53.82;100075.06;4971934;28;98814;-70
2022/11/21 06:38:41;;;;;;;38.00;19.10;;;;;;;6.06;53.54;100069.97;4969624;28;96779;-69
2022/11/21 06:41:12;;;;;;;34.22;17.80;;;;;;;5.80;53.52;100078.53;4971174;28;96937;-71
2022/11/21 06:43:39;;;;;;;40.45;17.85;;;;;;;5.72;54.01;100078.72;4970695;28;98951;-68
2022/11/21 06:46:06;;;;;;;34.17;18.02;;;;;;;5.82;53.95;100081.97;4965438;28;99456;-69
2022/11/21 06:48:34;;;;;;;37.13;18.20;;;;;;;5.35;55.27;100083.19;4963364;28;97097;-70
2022/11/21 06:51:05;;;;;;;37.00;19.15;;;;;;;5.72;54.36;100085.72;4968862;28;98060;-70
2022/11/21 06:53:32;;;;;;;40.40;18.50;;;;;;;5.61;54.86;100091.25;4963134;28;99071;-70
2022/11/21 06:55:59;;;;;;;35.90;17.75;;;;;;;6.01;53.73;100083.22;4964535;28;99087;-70
2022/11/21 06:58:28;;;;;;;37.03;18.23;;;;;;;5.81;53.83;100095.97;4965184;28;97025;-69
2022/11/21 07:00:54;;;;;;;40.28;19.13;;;;;;;5.95;53.43;100093.88;4964373;28;97995;-70
2022/11/21 07:03:21;;;;;;;40.45;19.25;;;;;;;5.72;53.99;100096.22;4966249;28;99042;-70
2022/11/21 07:05:48;;;;;;;41.13;19.60;;;;;;;5.67;53.43;100108.59;4968284;28;99223;-69
2022/11/21 07:08:15;;;;;;;43.03;20.98;;;;;;;5.36;54.22;100105.88;4964372;28;96837;-70
2022/11/21 07:10:42;;;;;;;50.10;20.63;;;;;;;5.22;54.75;100108.81;4969502;28;96856;-70
2022/11/21 07:16:01;;;;;;;45.67;19.48;;;;;;;4.71;57.02;100118.72;4965875;28;99681;-70
2022/11/21 07:18:28;;;;;;;45.13;20.88;;;;;;;4.85;56.54;100123.66;4965718;28;97497;-70
2022/11/21 07:20:58;;;;;;;49.55;20.58;;;;;;;4.94;56.52;100121.69;4972808;28;96950;-70
2022/11/21 07:23:24;;;;;;;44.72;21.75;;;;;;;5.06;56.05;100118.78;4965959;28;99549;-69
2022/11/21 07:25:51;;;;;;;46.67;21.23;;;;;;;5.32;55.72;100130.41;4971042;28;99000;-70
2022/11/21 07:28:17;;;;;;;39.92;19.65;;;;;;;5.46;54.63;100121.31;4968770;28;96984;-71
2022/11/21 07:30:44;;;;;;;42.47;20.17;;;;;;;5.60;54.98;100131.47;4971104;28;96996;-69
2022/11/21 07:33:12;;;;;;;42.15;20.58;;;;;;;5.66;54.57;100128.69;4966695;28;98939;-70
2022/11/21 07:35:38;;;;;;;39.08;20.05;;;;;;;5.49;54.54;100143.97;4966884;28;99480;-71
2022/11/21 07:38:04;;;;;;;38.70;19.65;;;;;;;5.45;55.01;100139.69;4970189;28;96985;-69
2022/11/21 07:40:33;;;;;;;39.63;20.23;;;;;;;5.21;54.44;100144.63;4967079;28;96816;-71
2022/11/21 07:43:01;;;;;;;43.50;20.52;;;;;;;4.80;55.97;100147.31;4971794;28;98970;-70
2022/11/21 07:45:31;;;;;;;45.40;21.25;;;;;;;4.69;56.40;100147.53;4968353;28;98934;-67
2022/11/21 07:48:00;;;;;;;39.20;20.73;;;;;;;5.05;55.82;100155.50;4969002;28;96787;-65
2022/11/21 07:50:28;;;;;;;42.22;20.95;;;;;;;4.82;55.89;100153.38;4962702;28;97015;-65
2022/11/21 07:52:58;;;;;;;44.88;20.40;;;;;;;4.77;56.33;100150.00;4969604;28;99292;-65
2022/11/21 07:55:25;;;;;;;43.45;20.67;;;;;;;4.81;56.35;100149.88;4969376;28;99287;-66
2022/11/21 07:57:58;;;;;;;38.40;19.33;;;;;;;4.97;56.10;100152.19;4971104;28;96987;-65
2022/11/21 08:00:24;;;;;;;41.35;20.55;;;;;;;4.98;55.93;100157.41;4968868;28;96794;-65
2022/11/21 08:02:51;;;;;;;41.80;18.60;;;;;;;4.71;56.26;100157.97;4970734;28;97931;-65
2022/11/21 08:05:17;;;;;;;37.65;20.00;;;;;;;4.71;56.15;100160.59;4965835;28;99903;-65
2022/11/21 08:07:45;;;;;;;39.67;20.52;;;;;;;4.68;56.74;100160.66;4969553;28;96765;-65
2022/11/21 08:10:11;;;;;;;46.78;21.75;;;;;;;5.11;54.95;100174.56;4962491;28;96867;-65
2022/11/21 08:12:38;;;;;;;40.00;18.98;;;;;;;4.80;56.01;100170.84;4971820;28;98945;-64
2022/11/21 08:15:06;;;;;;;43.03;20.00;;;;;;;5.14;54.59;100165.75;4965916;28;99235;-65
2022/11/21 08:17:32;;;;;;;47.75;20.52;;;;;;;5.31;54.61;100168.88;4972832;28;96648;-65
2022/11/21 08:19:59;;;;;;;48.78;21.42;;;;;;;5.33;54.21;100166.19;4969199;28;96901;-66
2022/11/21 08:22:26;;;;;;;47.25;21.50;;;;;;;5.69;54.12;100159.22;4970485;28;99549;-65
2022/11/21 08:24:54;;;;;;;49.65;21.67;;;;;;;5.53;53.94;100166.59;4969923;28;99249;-64
2022/11/21 08:27:21;;;;;;;47.85;22.55;;;;;;;5.84;52.79;100164.91;4968184;28;96934;-65
2022/11/21 08:29:47;;;;;;;48.22;22.08;;;;;;;5.72;52.83;100169.59;4967263;28;97469;-65
2022/11/21 08:32:14;;;;;;;43.38;19.65;;;;;;;5.50;53.09;100174.53;4967778;28;99409;-65
2022/11/21 08:34:41;;;;;;;47.95;20.92;;;;;;;5.13;54.31;100179.75;4968452;28;99256;-65
2022/11/21 08:37:10;;;;;;;43.53;20.65;;;;;;;4.80;55.26;100181.31;4966022;28;96765;-65
2022/11/21 08:39:36;;;;;;;41.67;17.23;;;;;;;5.03;54.80;100188.72;4963729;28;97440;-65
2022/11/21 08:42:04;;;;;;;39.88;17.50;;;;;;;4.70;55.83;100190.28;4965308;28;98890;-66
2022/11/21 08:44:31;;;;;;;32.10;14.38;;;;;;;4.57;55.84;100189.66;4970584;28;99028;-66
2022/11/21 08:46:58;;;;;;;32.55;16.15;;;;;;;4.88;54.87;100195.13;4968770;28;96673;-66
2022/11/21 08:49:24;;;;;;;36.83;17.58;;;;;;;5.10;53.82;100195.53;4969281;28;96839;-66
2022/11/21 08:51:51;;;;;;;44.72;20.33;;;;;;;5.21;53.92;100204.88;4970283;28;99211;-65
2022/11/21 08:54:18;;;;;;;39.67;19.65;;;;;;;5.39;53.34;100208.81;4968164;28;98800;-64
2022/11/21 08:56:44;;;;;;;48.22;20.92;;;;;;;5.52;53.05;100198.91;4966258;28;96993;-65
2022/11/21 08:59:13;;;;;;;48.22;21.63;;;;;;;5.67;52.57;100208.19;4967651;28;98620;-66
2022/11/21 09:01:39;;;;;;;48.88;20.98;;;;;;;5.80;52.75;100207.84;4966104;28;98901;-66
2022/11/21 09:04:06;;;;;;;50.13;20.38;;;;;;;5.42;53.16;100210.53;4954971;28;99398;-65
2022/11/21 09:06:32;;;;;;;50.42;21.45;;;;;;;5.12;54.21;100205.06;4967888;28;96824;-66
2022/11/21 09:08:59;;;;;;;51.25;19.98;;;;;;;4.78;55.40;100198.84;4962162;28;96886;-65
2022/11/21 09:11:25;;;;;;;46.38;20.48;;;;;;;4.76;55.66;100209.34;4962646;28;99261;-65
2022/11/21 09:19:19;;;;;;;44.00;20.40;;;;;;;4.77;54.63;100212.81;4967502;28;97859;-65
2022/11/21 09:21:46;;;;;;;44.72;20.67;;;;;;;4.67;55.34;100219.97;4970352;28;99079;-65
2022/11/21 09:24:13;;;;;;;45.13;19.13;;;;;;;4.76;54.61;100213.72;4967383;28;99172;-65
2022/11/21 09:26:40;;;;;;;38.30;16.75;;;;;;;4.38;55.38;100222.31;4967203;28;96809;-65
2022/11/21 09:29:09;;;;;;;34.15;15.30;;;;;;;3.71;56.27;100231.31;4968573;28;99250;-65
2022/11/21 09:31:37;;;;;;;33.08;16.00;;;;;;;3.72;56.30;100222.59;4965035;28;98923;-66
2022/11/21 09:34:04;;;;;;;35.70;17.02;;;;;;;3.57;56.07;100218.44;4967453;28;98351;-65
2022/11/21 09:36:30;;;;;;;35.20;16.67;;;;;;;3.71;56.50;100231.31;4970045;28;97094;-65
2022/11/21 09:38:59;;;;;;;34.53;17.20;;;;;;;4.07;55.84;100224.59;4968492;28;96976;-64
2022/11/21 09:44:28;;;;;;;38.15;17.45;;;;;;;4.22;55.52;100226.09;4958319;28;100437;-65
2022/11/21 09:47:02;;;;;;;35.22;14.68;;;;;;;4.25;54.47;100223.44;4961803;28;96792;-65
2022/11/21 09:49:33;;;;;;;37.63;16.05;;;;;;;4.61;54.37;100227.09;4970970;28;96843;-65
2022/11/21 09:52:00;;;;;;;36.05;16.50;;;;;;;4.54;54.28;100225.47;4962960;28;98912;-65
2022/11/21 09:54:32;;;;;;;36.10;15.77;;;;;;;4.62;53.66;100223.59;4960166;28;98828;-65
2022/11/21 09:56:59;;;;;;;35.83;15.52;;;;;;;4.71;53.43;100228.66;4967949;28;97205;-64
2022/11/21 09:59:33;;;;;;;34.10;17.30;;;;;;;4.55;54.19;100224.59;4961934;28;96850;-64
2022/11/21 10:02:02;;;;;;;41.65;18.60;;;;;;;4.57;54.31;100231.53;4968237;28;99091;-66
2022/11/21 10:04:29;;;;;;;39.22;18.20;;;;;;;4.54;54.16;100230.72;4970910;28;99212;-65
2022/11/21 10:07:02;;;;;;;38.78;17.95;;;;;;;4.64;54.79;100242.75;4970586;28;97490;-64
2022/11/21 10:09:41;;;;;;;38.30;18.27;;;;;;;4.92;53.49;100240.44;4966679;28;96744;-65
2022/11/21 10:15:12;;;;;;;36.28;18.30;;;;;;;4.70;53.80;100253.09;4970472;28;97115;-65
2022/11/21 10:17:55;;;;;;;35.30;17.52;;;;;;;4.47;54.79;100255.25;4967344;28;97871;-65
2022/11/21 10:20:33;;;;;;;35.53;17.08;;;;;;;4.37;55.01;100259.81;4971618;28;96970;-65
2022/11/21 10:23:13;;;;;;;30.02;15.93;;;;;;;4.35;55.12;100258.97;4968490;28;99356;-65
2022/11/21 10:25:47;;;;;;;34.28;15.57;;;;;;;4.46;54.05;100256.19;4968850;28;99035;-65
2022/11/21 10:28:20;;;;;;;33.38;15.80;;;;;;;4.34;54.25;100245.03;4971817;28;96741;-66
2022/11/21 10:30:50;;;;;;;29.55;15.35;;;;;;;3.65;56.63;100254.91;4970938;28;96822;-66
2022/11/21 10:33:27;;;;;;;35.22;16.45;;;;;;;3.77;56.90;100261.69;4968308;28;99197;-66
2022/11/21 10:35:58;;;;;;;29.63;15.75;;;;;;;4.28;55.07;100275.66;4970337;28;99208;-68
2022/11/21 10:38:27;;;;;;;28.98;15.55;;;;;;;4.30;54.77;100282.59;4972308;28;97086;-66
2022/11/21 10:41:00;;;;;;;29.55;14.48;;;;;;;4.06;55.44;100283.03;4971616;28;97338;-65
2022/11/21 10:46:18;;;;;;;29.73;15.48;;;;;;;4.22;55.56;100275.78;4969238;28;97169;-66
2022/11/21 10:48:53;;;;;;;31.63;15.13;;;;;;;4.26;55.32;100283.56;4971241;28;97229;-65
2022/11/21 10:51:33;;;;;;;30.25;14.90;;;;;;;4.58;54.76;100271.66;4965509;28;97553;-66
2022/11/21 10:56:52;;;;;;;28.42;13.27;;;;;;;4.78;53.89;100287.84;4967287;28;98146;-65
2022/11/21 10:59:25;;;;;;;31.75;15.52;;;;;;;4.80;53.77;100273.81;4971718;28;97123;-66
2022/11/21 11:01:56;;;;;;;35.30;14.55;;;;;;;5.02;53.85;100270.78;4965845;28;97072;-64
2022/11/21 11:04:25;;;;;;;35.42;14.80;;;;;;;5.20;52.20;100271.25;4965588;28;99104;-65
2022/11/21 11:06:52;;;;;;;31.58;13.60;;;;;;;4.77;53.94;100275.63;4961757;28;99512;-65
2022/11/21 11:09:29;;;;;;;33.20;14.75;;;;;;;4.61;54.46;100274.19;4966478;28;97432;-65
2022/11/21 11:12:22;;;;;;;29.42;14.00;;;;;;;4.94;53.66;100277.91;4969165;28;96753;-65
2022/11/21 11:14:51;;;;;;;29.73;14.23;;;;;;;5.12;53.26;100275.78;4969834;28;99354;-65
2022/11/21 11:17:27;;;;;;;30.00;13.88;;;;;;;5.37;52.97;100272.66;4970696;28;99057;-68
2022/11/21 11:20:06;;;;;;;31.92;14.30;;;;;;;5.20;52.74;100275.63;4968584;28;98451;-66
2022/11/21 11:22:32;;;;;;;32.72;14.38;;;;;;;5.33;52.66;100276.22;4965842;28;99038;-65
2022/11/21 11:25:03;;;;;;;29.02;13.98;;;;;;;5.04;53.37;100276.84;4967175;28;98199;-65
2022/11/21 11:27:29;;;;;;;26.35;12.88;;;;;;;5.02;53.21;100271.63;4969262;28;99741;-65
2022/11/21 11:30:06;;;;;;;22.20;12.27;;;;;;;4.77;53.44;100276.50;4970103;28;96988;-65
2022/11/21 11:32:38;;;;;;;28.37;13.33;;;;;;;5.10;53.13;100272.34;4964723;28;97090;-65
2022/11/21 11:35:20;;;;;;;25.85;12.50;;;;;;;5.01;53.66;100280.38;4963155;28;99240;-65
2022/11/21 11:37:57;;;;;;;26.63;12.65;;;;;;;5.04;52.50;100279.47;4966454;28;98657;-65
2022/11/21 11:40:30;;;;;;;24.52;13.23;;;;;;;5.20;52.70;100289.59;4959480;28;97285;-64
2022/11/21 11:49:18;;;;;;;29.40;13.82;;;;;;;5.00;52.93;100281.28;4965440;28;98853;-66
2022/11/21 11:51:54;;;;;;;25.38;13.05;;;;;;;4.87;52.93;100279.78;4969931;28;97511;-67
2022/11/21 11:54:24;;;;;;;25.70;13.32;;;;;;;5.12;52.56;100277.56;4960832;28;97595;-65